Time;durP1;ratioP1;P1;durP2;ratioP2;P2;SDS_P1;SDS_P2;PMS_P1;PMS_P2;Temp;Humidity;BMP_temperature;BMP_pressure;BME280_temperature;BME280_humidity;BME280_pressure;Samples;Min_cycle;Max_cycle;Signal;HPM_P1;HPM_P2
2024/01/28 00:03:38;;;;;;;5.47;2.50;;;;;;;-0.90;63.85;101782.00;10473033;28;20078;-62
2024/01/28 00:08:40;;;;;;;7.07;2.53;;;;;;;-0.97;64.10;101775.03;10477007;28;20064;-62
2024/01/28 00:13:42;;;;;;;6.10;3.00;;;;;;;-0.95;63.58;101774.22;10447868;28;20405;-62
2024/01/28 00:18:45;;;;;;;11.25;3.28;;;;;;;-1.09;63.77;101775.69;10488325;28;20072;-63
2024/01/28 00:23:47;;;;;;;6.28;2.78;;;;;;;-1.09;64.01;101772.25;10467915;28;20055;-63
2024/01/28 00:28:49;;;;;;;7.97;3.83;;;;;;;-1.09;64.31;101768.00;10484152;28;20044;-63
2024/01/28 00:33:51;;;;;;;9.73;3.67;;;;;;;-1.03;64.04;101765.53;10471579;28;20094;-63
2024/01/28 00:38:53;;;;;;;6.93;3.08;;;;;;;-1.03;64.17;101757.81;10484301;28;20048;-63
2024/01/28 00:43:56;;;;;;;6.15;3.30;;;;;;;-1.03;63.99;101751.81;10489597;28;20048;-63
2024/01/28 00:48:58;;;;;;;7.68;3.80;;;;;;;-1.07;63.76;101744.91;10486769;28;20040;-63
2024/01/28 00:54:01;;;;;;;7.43;2.85;;;;;;;-1.11;63.84;101740.56;10484425;28;20044;-62
2024/01/28 00:59:03;;;;;;;5.90;2.55;;;;;;;-1.19;64.01;101730.16;10483749;28;20465;-62
2024/01/28 01:04:05;;;;;;;8.50;3.03;;;;;;;-1.23;64.05;101728.41;10478213;28;20056;-62
2024/01/28 01:09:08;;;;;;;4.47;2.58;;;;;;;-1.16;64.20;101725.06;10483905;28;20607;-62
2024/01/28 01:14:10;;;;;;;9.10;2.83;;;;;;;-1.16;64.10;101719.94;10481096;28;20102;-62
2024/01/28 01:19:12;;;;;;;8.25;3.47;;;;;;;-1.17;63.76;101723.34;10480328;28;20174;-62
2024/01/28 01:24:14;;;;;;;8.13;3.45;;;;;;;-1.22;63.63;101720.72;10479840;28;20455;-64
2024/01/28 01:29:16;;;;;;;9.30;3.45;;;;;;;-1.47;63.75;101723.69;10481718;28;20071;-62
2024/01/28 01:34:18;;;;;;;7.32;2.90;;;;;;;-1.52;63.80;101722.75;10481403;28;20052;-61
2024/01/28 01:39:20;;;;;;;6.10;3.17;;;;;;;-1.46;64.06;101724.56;10480526;28;21095;-62
2024/01/28 01:44:23;;;;;;;6.88;2.90;;;;;;;-1.57;64.06;101714.09;10463124;28;20044;-62
2024/01/28 01:49:26;;;;;;;6.72;3.80;;;;;;;-1.53;64.13;101710.75;10488037;28;20064;-62
2024/01/28 01:54:28;;;;;;;8.43;3.40;;;;;;;-1.50;64.04;101705.69;10475954;28;20135;-62
2024/01/28 01:59:30;;;;;;;5.05;3.00;;;;;;;-1.53;63.95;101694.53;10476407;28;20515;-62
2024/01/28 02:04:33;;;;;;;6.05;3.60;;;;;;;-1.53;64.00;101692.78;10480524;28;20040;-62
2024/01/28 02:09:35;;;;;;;10.10;2.92;;;;;;;-1.49;64.05;101689.44;10480142;28;20051;-62
2024/01/28 02:14:38;;;;;;;9.18;4.22;;;;;;;-1.48;63.83;101691.19;10479356;28;20052;-62
2024/01/28 02:19:40;;;;;;;12.70;5.30;;;;;;;-1.53;63.53;101689.38;10478192;28;20052;-62
2024/01/28 02:24:43;;;;;;;8.93;3.75;;;;;;;-1.68;64.03;101682.28;10467377;28;20040;-62
2024/01/28 02:29:45;;;;;;;8.07;4.03;;;;;;;-1.61;63.94;101690.94;10473863;28;20040;-62
2024/01/28 02:34:47;;;;;;;5.50;2.85;;;;;;;-1.74;63.88;101684.75;10478801;28;20067;-61
2024/01/28 02:39:49;;;;;;;7.75;3.20;;;;;;;-1.73;64.09;101690.72;10458276;28;20489;-62
2024/01/28 02:44:51;;;;;;;7.15;3.13;;;;;;;-1.73;63.72;101689.03;10478303;28;20047;-62
2024/01/28 02:49:53;;;;;;;8.57;3.75;;;;;;;-1.75;63.68;101675.31;10477947;28;20040;-61
2024/01/28 02:54:55;;;;;;;6.72;2.60;;;;;;;-1.84;64.10;101664.91;10475487;28;20080;-61
2024/01/28 02:59:58;;;;;;;4.93;2.50;;;;;;;-1.81;63.92;101664.94;10479215;28;20505;-61
2024/01/28 03:05:01;;;;;;;6.15;2.75;;;;;;;-1.81;63.93;101669.19;10480457;28;20134;-62
2024/01/28 03:10:04;;;;;;;9.70;2.83;;;;;;;-1.79;63.84;101647.88;10477015;28;20390;-61
2024/01/28 03:15:06;;;;;;;4.82;2.50;;;;;;;-1.79;63.88;101647.88;10492902;28;20045;-62
2024/01/28 03:20:10;;;;;;;4.65;3.13;;;;;;;-1.84;63.84;101644.38;10476493;28;20574;-62
2024/01/28 03:25:15;;;;;;;6.35;2.03;;;;;;;-1.83;63.94;101648.66;10476123;28;20040;-62
2024/01/28 03:30:17;;;;;;;6.75;2.58;;;;;;;-1.84;63.89;101651.22;10476160;28;20143;-62
2024/01/28 03:35:19;;;;;;;17.70;3.40;;;;;;;-1.91;63.88;101637.41;10475653;28;20056;-62
2024/01/28 03:40:21;;;;;;;5.28;2.60;;;;;;;-1.95;64.12;101647.56;10476988;28;20049;-62
2024/01/28 03:45:23;;;;;;;5.18;3.00;;;;;;;-1.95;64.26;101651.00;10477358;28;20067;-61
2024/01/28 03:50:26;;;;;;;5.95;2.80;;;;;;;-1.87;64.15;101640.88;10473384;28;20037;-62
2024/01/28 03:55:28;;;;;;;5.13;2.53;;;;;;;-1.82;63.92;101636.72;10475769;28;20726;-62
2024/01/28 04:00:30;;;;;;;4.78;2.90;;;;;;;-1.83;63.70;101634.97;10468828;28;20052;-62
2024/01/28 04:05:33;;;;;;;5.70;3.10;;;;;;;-1.84;63.91;101639.25;10476505;28;20032;-61
2024/01/28 04:10:36;;;;;;;7.85;2.80;;;;;;;-1.84;63.76;101639.25;10474846;28;20048;-62
2024/01/28 04:15:38;;;;;;;6.65;2.75;;;;;;;-2.04;63.86;101644.00;10471168;28;20045;-61
2024/01/28 04:20:40;;;;;;;8.73;3.33;;;;;;;-2.03;63.97;101645.75;10448124;28;20160;-62
2024/01/28 04:25:42;;;;;;;6.35;3.97;;;;;;;-2.05;63.96;101637.19;10468466;28;20067;-62
2024/01/28 04:30:44;;;;;;;10.30;2.83;;;;;;;-2.16;64.13;101630.97;10472151;28;20054;-61
2024/01/28 04:35:46;;;;;;;6.25;2.28;;;;;;;-2.20;64.22;101613.81;10456856;28;20053;-61
2024/01/28 04:40:48;;;;;;;4.40;2.55;;;;;;;-2.24;64.26;101626.53;10465498;28;20190;-61
2024/01/28 04:45:53;;;;;;;5.20;2.53;;;;;;;-2.37;64.42;101619.47;10454480;28;20492;-61
2024/01/28 04:50:55;;;;;;;4.43;2.33;;;;;;;-2.35;64.42;101617.78;10468260;28;21168;-61
2024/01/28 04:55:57;;;;;;;5.72;2.83;;;;;;;-2.29;64.11;101611.09;10468352;28;20056;-60
2024/01/28 05:00:59;;;;;;;6.35;3.42;;;;;;;-2.29;63.97;101602.53;10477839;28;20115;-61
2024/01/28 05:06:04;;;;;;;3.85;2.20;;;;;;;-2.35;63.80;101599.84;10476220;28;20052;-61
2024/01/28 05:11:06;;;;;;;4.55;2.65;;;;;;;-2.55;63.73;101591.78;10459310;28;20417;-61
2024/01/28 05:16:08;;;;;;;5.25;2.63;;;;;;;-2.58;64.22;101608.78;10475507;28;20062;-61
2024/01/28 05:21:11;;;;;;;6.00;3.03;;;;;;;-2.50;64.05;101604.66;10477209;28;20041;-61
2024/01/28 05:26:14;;;;;;;3.88;2.58;;;;;;;-2.54;63.99;101606.31;10473793;28;20499;-61
2024/01/28 05:31:16;;;;;;;7.57;3.40;;;;;;;-2.50;63.93;101608.09;10475910;28;20044;-61
2024/01/28 05:36:18;;;;;;;5.63;2.67;;;;;;;-2.51;63.80;101606.38;10475975;28;20056;-60
2024/01/28 05:41:21;;;;;;;4.18;2.40;;;;;;;-2.49;63.74;101598.72;10475342;28;20051;-61
2024/01/28 05:46:23;;;;;;;5.72;2.55;;;;;;;-2.46;63.97;101593.66;10474417;28;20055;-61
2024/01/28 05:51:26;;;;;;;6.68;2.67;;;;;;;-2.48;63.75;101585.94;10480368;28;20589;-61
2024/01/28 05:56:29;;;;;;;5.60;2.47;;;;;;;-2.45;64.00;101590.28;10472220;28;20043;-61
2024/01/28 06:01:31;;;;;;;4.35;2.28;;;;;;;-2.37;63.96;101584.47;10475326;28;20044;-61
2024/01/28 06:06:33;;;;;;;4.72;2.70;;;;;;;-2.36;63.66;101581.06;10461995;28;20036;-61
2024/01/28 06:11:36;;;;;;;6.32;2.50;;;;;;;-2.44;63.59;101590.28;10479229;28;20500;-61
2024/01/28 06:16:38;;;;;;;4.03;2.58;;;;;;;-2.48;63.74;101596.19;10479907;28;20417;-61
2024/01/28 06:21:40;;;;;;;4.53;2.22;;;;;;;-2.55;63.42;101591.78;10495377;27;20051;-62
2024/01/28 06:26:42;;;;;;;4.55;2.67;;;;;;;-2.64;63.44;101590.72;10472535;28;20134;-61
2024/01/28 06:31:46;;;;;;;4.55;2.35;;;;;;;-2.76;63.55;101588.81;10473649;28;20476;-62
2024/01/28 06:36:48;;;;;;;6.82;2.42;;;;;;;-2.77;63.73;101576.81;10475134;28;20056;-62
2024/01/28 06:41:50;;;;;;;5.53;2.53;;;;;;;-2.69;63.73;101572.72;10471606;28;20043;-62
2024/01/28 06:46:52;;;;;;;5.45;2.33;;;;;;;-2.82;63.16;101583.56;10470124;28;20523;-62
2024/01/28 06:51:54;;;;;;;6.57;3.25;;;;;;;-2.85;63.79;101586.91;10471064;28;20151;-62
2024/01/28 06:56:56;;;;;;;4.75;2.50;;;;;;;-2.85;63.48;101583.47;10471084;28;20280;-61
2024/01/28 07:01:58;;;;;;;4.40;2.40;;;;;;;-2.92;63.80;101582.47;10471819;28;20815;-61
2024/01/28 07:07:00;;;;;;;9.55;2.63;;;;;;;-2.81;63.58;101582.72;10470710;28;20645;-61
2024/01/28 07:12:03;;;;;;;8.63;3.08;;;;;;;-2.76;63.45;101585.38;10467809;28;20052;-62
2024/01/28 07:17:07;;;;;;;7.65;3.72;;;;;;;-2.74;63.38;101593.94;10469282;28;20591;-62
2024/01/28 07:22:11;;;;;;;5.80;2.92;;;;;;;-2.70;63.60;101588.06;10470050;28;20125;-62
2024/01/28 07:27:14;;;;;;;7.85;3.88;;;;;;;-2.67;63.28;101588.97;10476835;28;20133;-62
2024/01/28 07:32:16;;;;;;;6.53;3.85;;;;;;;-2.60;63.18;101580.59;10477241;28;20040;-62
2024/01/28 07:37:18;;;;;;;8.00;2.90;;;;;;;-2.54;62.98;101585.81;10476084;28;20075;-63
2024/01/28 07:42:20;;;;;;;8.48;3.58;;;;;;;-2.49;63.16;101591.88;10459252;28;20594;-62
2024/01/28 07:47:23;;;;;;;7.72;2.92;;;;;;;-2.36;63.08;101581.06;10438020;28;20377;-62
2024/01/28 07:52:25;;;;;;;5.53;2.60;;;;;;;-2.28;63.08;101574.38;10452022;28;20043;-62
2024/01/28 07:57:27;;;;;;;4.93;2.67;;;;;;;-2.19;63.26;101579.69;10471504;28;20051;-61
2024/01/28 08:02:29;;;;;;;4.72;2.33;;;;;;;-1.98;63.38;101590.28;10471131;28;20052;-62
2024/01/28 08:07:31;;;;;;;5.43;2.92;;;;;;;-0.96;62.49;101585.00;10471638;28;20501;-62
2024/01/28 08:12:33;;;;;;;5.07;2.53;;;;;;;-0.82;61.65;101588.63;10468897;28;20125;-62
2024/01/28 08:17:36;;;;;;;4.38;2.50;;;;;;;-0.45;62.36;101588.22;10470305;28;20280;-62
2024/01/28 08:22:40;;;;;;;4.55;2.53;;;;;;;-0.20;61.09;101589.34;10468950;28;20047;-62
2024/01/28 08:27:44;;;;;;;4.78;2.50;;;;;;;-0.26;60.95;101575.56;10468477;28;20044;-63
2024/01/28 08:32:46;;;;;;;4.95;2.72;;;;;;;-0.36;60.79;101577.19;10473773;28;20401;-62
2024/01/28 08:37:48;;;;;;;9.20;3.30;;;;;;;-0.33;60.67;101579.78;10477412;28;20475;-62
2024/01/28 08:42:51;;;;;;;5.53;2.75;;;;;;;-0.57;60.94;101584.63;10479782;28;20094;-63
2024/01/28 08:47:53;;;;;;;4.82;2.92;;;;;;;-0.35;61.08;101581.47;10487034;28;20045;-60
2024/01/28 08:52:55;;;;;;;5.68;2.72;;;;;;;-0.11;61.09;101594.59;10483407;28;20056;-62
2024/01/28 08:57:57;;;;;;;5.22;3.47;;;;;;;-0.17;61.23;101588.53;10484073;28;20048;-62
2024/01/28 09:03:00;;;;;;;5.32;2.78;;;;;;;-0.11;61.65;101591.16;10484687;28;20041;-63
2024/01/28 09:08:03;;;;;;;5.38;2.90;;;;;;;0.08;61.83;101595.59;10486621;28;20063;-62
2024/01/28 09:13:05;;;;;;;8.63;3.08;;;;;;;0.08;61.89;101599.03;10474768;28;20059;-62
2024/01/28 09:18:07;;;;;;;5.13;3.03;;;;;;;0.23;61.72;101588.91;10468926;28;20044;-63
2024/01/28 09:23:09;;;;;;;4.82;2.40;;;;;;;0.21;62.15;101594.88;10482597;28;20057;-62
2024/01/28 09:28:11;;;;;;;6.63;3.03;;;;;;;0.35;61.83;101583.84;10481486;28;20058;-62
2024/01/28 09:33:13;;;;;;;7.75;3.08;;;;;;;0.39;62.20;101589.88;10484018;28;20061;-62
2024/01/28 09:38:15;;;;;;;3.78;2.55;;;;;;;0.33;62.50;101584.69;10464139;28;20040;-60
2024/01/28 09:43:30;;;;;;;8.63;3.20;;;;;;;0.46;62.02;101586.53;10488129;28;20559;-60
2024/01/28 09:48:32;;;;;;;4.70;3.20;;;;;;;0.53;62.25;101588.28;10487356;28;20056;-61
2024/01/28 09:53:34;;;;;;;7.20;3.70;;;;;;;0.64;61.97;101576.34;10483330;28;20135;-61
2024/01/28 09:58:37;;;;;;;10.63;2.70;;;;;;;0.87;62.02;101569.59;10480155;28;20062;-61
2024/01/28 10:03:41;;;;;;;6.80;2.70;;;;;;;0.96;61.81;101569.66;10480315;28;21277;-61
2024/01/28 10:08:44;;;;;;;9.40;3.15;;;;;;;1.10;61.58;101569.72;10476762;28;20056;-61
2024/01/28 10:13:46;;;;;;;5.88;3.05;;;;;;;1.30;61.59;101565.53;10462061;28;20068;-61
2024/01/28 10:18:48;;;;;;;7.13;3.05;;;;;;;1.43;61.16;101558.69;10474004;28;20060;-61
2024/01/28 10:23:51;;;;;;;8.65;2.75;;;;;;;1.56;61.38;101560.47;10458431;28;20072;-61
2024/01/28 10:28:53;;;;;;;6.13;2.63;;;;;;;1.71;60.97;101556.19;10476085;28;20051;-61
2024/01/28 10:33:56;;;;;;;4.47;2.67;;;;;;;1.94;60.91;101548.50;10479754;28;20049;-61
2024/01/28 10:39:01;;;;;;;4.68;2.47;;;;;;;2.13;60.99;101537.34;10458878;28;20059;-62
2024/01/28 10:44:07;;;;;;;5.43;2.83;;;;;;;2.21;60.38;101530.44;10489783;27;20056;-62
2024/01/28 10:49:11;;;;;;;7.20;3.50;;;;;;;2.33;60.40;101530.44;10478033;28;20040;-62
2024/01/28 10:54:14;;;;;;;7.30;2.85;;;;;;;2.36;60.30;101520.09;10478611;28;20151;-62
2024/01/28 10:59:16;;;;;;;6.40;2.72;;;;;;;2.41;60.05;101513.22;10473539;28;20048;-62
2024/01/28 11:04:19;;;;;;;7.07;2.42;;;;;;;2.59;60.13;101507.16;10481823;28;20094;-62
2024/01/28 11:09:22;;;;;;;7.65;3.00;;;;;;;2.78;60.24;101503.66;10457707;28;20133;-62
2024/01/28 11:14:26;;;;;;;5.13;2.60;;;;;;;2.90;60.23;101496.75;10480875;28;20055;-62
2024/01/28 11:19:29;;;;;;;9.13;3.00;;;;;;;2.98;59.86;101488.94;10477349;28;20048;-61
2024/01/28 11:24:47;;;;;;;6.55;3.42;;;;;;;2.98;59.26;101487.22;10475842;28;20055;-62
2024/01/28 11:29:56;;;;;;;7.60;2.80;;;;;;;3.14;59.56;101476.81;10474892;28;20040;-62
2024/01/28 11:34:59;;;;;;;6.13;3.33;;;;;;;3.26;59.47;101461.22;10475136;28;20056;-62
2024/01/28 11:40:07;;;;;;;6.70;2.72;;;;;;;3.35;59.32;101456.00;10473517;28;20048;-62
2024/01/28 11:45:09;;;;;;;6.40;3.15;;;;;;;3.50;59.19;101440.38;10457343;28;20839;-62
2024/01/28 11:50:11;;;;;;;6.80;2.50;;;;;;;3.66;59.03;101439.44;10474384;28;20055;-62
2024/01/28 11:55:17;;;;;;;6.13;2.75;;;;;;;3.76;58.61;101431.56;10475744;28;20067;-62
2024/01/28 12:00:21;;;;;;;5.97;2.88;;;;;;;3.89;58.64;101419.41;10472507;28;20052;-62
2024/01/28 12:05:23;;;;;;;5.47;2.67;;;;;;;4.01;58.07;101419.28;10473895;28;20760;-62
2024/01/28 12:10:25;;;;;;;6.15;3.03;;;;;;;4.15;58.05;101407.06;10464634;28;20062;-62
2024/01/28 12:15:27;;;;;;;7.78;2.40;;;;;;;4.23;57.79;101405.25;10465008;28;20159;-62
2024/01/28 12:20:30;;;;;;;4.32;2.40;;;;;;;4.49;57.72;101398.09;10482742;28;20055;-68
2024/01/28 12:25:34;;;;;;;6.30;2.92;;;;;;;4.59;57.29;101397.09;10480950;28;20039;-68
2024/01/28 12:30:37;;;;;;;5.97;2.45;;;;;;;4.69;56.74;101384.88;10462838;28;20045;-67
2024/01/28 12:35:39;;;;;;;7.75;3.33;;;;;;;4.72;57.01;101383.09;10485033;28;20048;-68
2024/01/28 12:40:41;;;;;;;5.90;2.33;;;;;;;4.91;56.64;101369.88;10461973;28;20044;-66
2024/01/28 12:45:43;;;;;;;6.07;2.60;;;;;;;5.08;56.53;101362.75;10467234;28;20063;-66
2024/01/28 12:50:46;;;;;;;5.03;2.42;;;;;;;5.29;56.44;101359.78;10481042;28;20057;-66
2024/01/28 12:55:48;;;;;;;4.40;2.97;;;;;;;5.44;55.93;101346.59;10482277;28;20052;-66
2024/01/28 13:00:50;;;;;;;5.15;2.17;;;;;;;5.59;55.97;101346.34;10481425;28;20194;-66
2024/01/28 13:05:54;;;;;;;4.78;2.38;;;;;;;5.71;55.52;101338.34;10446946;28;20288;-68
2024/01/28 13:11:00;;;;;;;10.27;2.53;;;;;;;5.85;55.43;101327.72;10477311;28;20056;-68
2024/01/28 13:16:02;;;;;;;4.72;2.15;;;;;;;5.87;54.97;101326.81;10464054;28;20083;-68
2024/01/28 13:21:04;;;;;;;4.68;2.40;;;;;;;6.02;54.76;101316.13;10479058;28;20032;-68
2024/01/28 13:26:06;;;;;;;4.72;2.53;;;;;;;6.19;54.47;101301.06;10480236;28;20055;-68
2024/01/28 13:31:08;;;;;;;3.42;1.70;;;;;;;6.25;53.99;101300.97;10460372;28;20071;-68
2024/01/28 13:36:11;;;;;;;5.47;2.80;;;;;;;6.37;54.39;101293.84;10461557;28;20075;-68
2024/01/28 13:41:13;;;;;;;4.68;1.92;;;;;;;6.43;53.97;101288.50;10479878;28;20040;-68
2024/01/28 13:46:15;;;;;;;5.90;2.40;;;;;;;6.54;54.62;101279.56;10478703;28;20584;-68
2024/01/28 13:51:17;;;;;;;4.63;2.10;;;;;;;6.53;54.31;101282.22;10475161;28;20062;-68
2024/01/28 13:56:20;;;;;;;6.93;2.63;;;;;;;6.51;54.63;101281.41;10459557;28;20125;-68
2024/01/28 14:01:23;;;;;;;7.78;2.95;;;;;;;6.58;54.01;101275.16;10479631;28;20240;-67
2024/01/28 14:06:27;;;;;;;9.52;3.65;;;;;;;6.85;54.05;101275.41;10478560;28;20383;-66
2024/01/28 14:11:29;;;;;;;5.63;2.80;;;;;;;6.90;53.82;101267.47;10482597;28;20057;-66
2024/01/28 14:16:31;;;;;;;4.85;3.05;;;;;;;6.94;53.64;101269.13;10459565;28;20052;-67
2024/01/28 14:21:33;;;;;;;7.30;3.58;;;;;;;7.00;53.48;101263.75;10458513;28;20071;-68
2024/01/28 14:26:35;;;;;;;8.75;3.50;;;;;;;7.00;53.19;101262.03;10475957;28;20649;-68
2024/01/28 14:31:37;;;;;;;5.35;2.58;;;;;;;7.08;53.10;101254.06;10475607;28;20040;-68
2024/01/28 14:36:41;;;;;;;6.47;2.45;;;;;;;7.00;52.87;101241.22;10457437;28;20047;-67
2024/01/28 14:41:43;;;;;;;6.60;3.03;;;;;;;7.10;52.85;101247.91;10477944;28;20550;-66
2024/01/28 14:46:46;;;;;;;7.15;2.90;;;;;;;7.10;52.82;101247.06;10477447;28;20059;-67
2024/01/28 14:51:49;;;;;;;7.43;2.72;;;;;;;7.02;53.14;101252.44;10480307;28;20510;-68
2024/01/28 14:56:51;;;;;;;3.80;2.33;;;;;;;7.00;52.96;101254.22;10478102;28;21401;-67
2024/01/28 15:01:53;;;;;;;6.70;2.50;;;;;;;6.87;52.95;101254.56;10476157;28;20044;-67
2024/01/28 15:06:56;;;;;;;4.82;2.22;;;;;;;6.80;53.10;101260.78;10443417;28;20462;-68
2024/01/28 15:11:59;;;;;;;4.53;2.00;;;;;;;6.71;53.34;101261.00;10472235;28;20152;-68
2024/01/28 15:17:01;;;;;;;4.82;2.20;;;;;;;6.62;53.33;101262.06;10441565;28;20060;-68
2024/01/28 15:22:03;;;;;;;7.07;2.35;;;;;;;6.61;53.33;101260.38;10476416;28;20416;-68
2024/01/28 15:27:06;;;;;;;7.97;2.50;;;;;;;6.45;53.45;101258.16;10475343;28;20041;-67
2024/01/28 15:32:08;;;;;;;4.38;1.92;;;;;;;6.27;53.58;101260.25;10476963;28;20040;-67
2024/01/28 15:37:10;;;;;;;8.65;2.80;;;;;;;6.11;53.74;101266.59;10471993;28;20054;-67
2024/01/28 15:42:12;;;;;;;4.32;1.85;;;;;;;5.90;53.96;101264.44;10475828;28;20040;-67
2024/01/28 15:47:15;;;;;;;4.75;2.60;;;;;;;5.79;54.09;101274.19;10457650;28;20029;-67
2024/01/28 15:52:17;;;;;;;3.90;1.98;;;;;;;5.63;54.27;101264.97;10473997;28;20421;-67
2024/01/28 15:57:20;;;;;;;5.50;2.20;;;;;;;5.49;54.47;101267.78;10472906;28;20199;-67
2024/01/28 16:02:22;;;;;;;8.07;2.25;;;;;;;5.35;54.55;101268.94;10474246;28;20048;-67
2024/01/28 16:07:24;;;;;;;5.80;2.90;;;;;;;5.02;55.11;101266.91;10471776;28;20076;-68
2024/01/28 16:12:27;;;;;;;7.03;3.28;;;;;;;4.74;55.62;101268.19;10473362;28;20040;-67
2024/01/28 16:17:30;;;;;;;6.32;2.58;;;;;;;4.56;55.91;101270.16;10473299;28;20063;-68
2024/01/28 16:22:32;;;;;;;5.10;2.22;;;;;;;4.55;55.69;101271.06;10471508;28;20463;-68
2024/01/28 16:27:36;;;;;;;6.90;2.17;;;;;;;4.39;55.82;101272.13;10473912;28;20036;-68
2024/01/28 16:32:38;;;;;;;4.82;2.50;;;;;;;4.22;56.06;101273.22;10457726;28;20045;-68
2024/01/28 16:37:42;;;;;;;5.45;2.67;;;;;;;3.98;56.40;101270.94;10489142;28;20044;-68
2024/01/28 16:42:44;;;;;;;6.05;2.42;;;;;;;3.73;56.70;101260.81;10474160;28;20037;-68
2024/01/28 16:47:46;;;;;;;8.18;3.50;;;;;;;3.64;56.92;101263.50;10457098;28;20043;-67
2024/01/28 16:52:49;;;;;;;4.90;2.33;;;;;;;3.52;57.12;101261.03;10468486;28;20408;-67
2024/01/28 16:57:52;;;;;;;8.90;3.67;;;;;;;3.35;57.38;101268.13;10480713;28;20059;-68
2024/01/28 17:02:54;;;;;;;9.60;4.85;;;;;;;3.25;57.74;101260.47;10482005;28;20126;-67
2024/01/28 17:07:57;;;;;;;11.30;5.75;;;;;;;3.11;57.95;101252.78;10477779;28;20045;-67
2024/01/28 17:13:00;;;;;;;8.07;4.72;;;;;;;3.05;58.19;101255.44;10461653;28;20056;-67
2024/01/28 17:18:03;;;;;;;11.25;4.07;;;;;;;2.89;58.51;101259.88;10478149;28;20063;-67
2024/01/28 17:23:06;;;;;;;7.70;4.78;;;;;;;2.82;58.73;101263.38;10478577;28;20310;-68
2024/01/28 17:28:10;;;;;;;6.70;3.92;;;;;;;2.77;58.74;101261.69;10480027;28;20094;-67
2024/01/28 17:33:12;;;;;;;7.25;3.53;;;;;;;2.61;58.80;101262.66;10479099;28;20050;-68
2024/01/28 17:38:14;;;;;;;10.25;4.28;;;;;;;2.47;59.22;101264.47;10480132;28;20036;-68
2024/01/28 17:43:16;;;;;;;8.30;3.92;;;;;;;2.32;59.59;101269.72;10498371;27;20433;-68
2024/01/28 17:48:19;;;;;;;8.05;3.95;;;;;;;2.30;59.79;101261.13;10478957;28;20828;-68
2024/01/28 17:53:22;;;;;;;9.60;3.55;;;;;;;2.30;59.92;101261.13;10461129;28;20135;-68
2024/01/28 17:58:25;;;;;;;9.10;4.13;;;;;;;2.23;59.96;101258.56;10459552;28;20040;-68
2024/01/28 18:03:28;;;;;;;8.15;3.08;;;;;;;2.25;59.97;101252.53;10476252;28;21111;-68
2024/01/28 18:08:30;;;;;;;6.70;3.30;;;;;;;2.18;60.13;101259.44;10459815;28;20803;-68
2024/01/28 18:13:36;;;;;;;10.80;4.28;;;;;;;2.05;60.24;101256.06;10494338;27;20276;-68
2024/01/28 18:18:39;;;;;;;12.73;5.65;;;;;;;1.89;60.60;101266.47;10481021;28;20697;-69
2024/01/28 18:23:42;;;;;;;14.15;5.95;;;;;;;1.76;60.87;101262.19;10462912;28;20048;-68
2024/01/28 18:28:44;;;;;;;11.20;5.65;;;;;;;1.70;60.95;101263.06;10476961;28;20045;-69
2024/01/28 18:33:49;;;;;;;11.60;4.60;;;;;;;1.64;61.16;101264.81;10473807;28;20080;-69
2024/01/28 18:38:53;;;;;;;15.63;5.13;;;;;;;1.63;61.17;101263.06;10473951;28;20051;-69
2024/01/28 18:43:58;;;;;;;15.48;6.43;;;;;;;1.58;61.13;101264.81;10473934;28;20063;-68
2024/01/28 18:49:01;;;;;;;16.13;6.57;;;;;;;1.43;61.48;101270.84;10478311;28;20044;-69
2024/01/28 18:54:04;;;;;;;14.30;6.47;;;;;;;1.37;61.39;101276.03;10477366;28;20657;-68
2024/01/28 18:59:08;;;;;;;13.15;5.65;;;;;;;1.31;61.58;101276.03;10475961;28;20063;-69
2024/01/28 19:04:10;;;;;;;8.80;5.07;;;;;;;1.22;61.84;101274.31;10473565;28;20675;-68
2024/01/28 19:09:12;;;;;;;8.15;4.68;;;;;;;1.18;62.04;101277.75;10470583;28;20062;-68
2024/01/28 19:14:15;;;;;;;8.90;3.22;;;;;;;1.14;62.10;101275.16;10473403;28;20524;-68
2024/01/28 19:19:19;;;;;;;5.68;3.45;;;;;;;1.03;62.28;101274.31;10451231;28;20463;-67
2024/01/28 19:24:22;;;;;;;8.55;4.13;;;;;;;0.93;62.45;101273.44;10475774;28;20048;-68
2024/01/28 19:29:25;;;;;;;8.68;4.32;;;;;;;0.82;62.78;101271.72;10471417;28;20116;-67
2024/01/28 19:34:27;;;;;;;7.07;3.45;;;;;;;0.80;62.79;101261.44;10471307;28;20048;-68
2024/01/28 19:39:32;;;;;;;7.25;3.55;;;;;;;0.79;62.77;101262.28;10477624;28;20579;-67
2024/01/28 19:44:35;;;;;;;7.05;4.15;;;;;;;0.69;62.69;101268.25;10480093;28;20052;-67
2024/01/28 19:49:37;;;;;;;8.23;3.38;;;;;;;0.62;62.70;101269.13;10478810;28;20071;-67
2024/01/28 19:54:39;;;;;;;7.32;3.15;;;;;;;0.54;62.65;101265.69;10479976;28;20059;-62
2024/01/28 19:59:41;;;;;;;5.68;2.97;;;;;;;0.32;63.15;101266.50;10474793;28;20037;-63
2024/01/28 20:04:45;;;;;;;6.20;3.15;;;;;;;0.27;63.27;101266.47;10475645;28;20084;-64
2024/01/28 20:09:47;;;;;;;5.75;2.88;;;;;;;0.24;63.27;101268.19;10476483;28;20049;-63
2024/01/28 20:14:49;;;;;;;6.10;3.00;;;;;;;0.17;63.42;101263.84;10477777;28;20064;-63
2024/01/28 20:19:51;;;;;;;5.15;2.60;;;;;;;0.14;63.45;101263.81;10479734;28;20045;-62
2024/01/28 20:24:54;;;;;;;4.43;2.67;;;;;;;0.09;63.50;101258.69;10476048;28;20045;-63
2024/01/28 20:29:57;;;;;;;10.27;3.08;;;;;;;0.09;63.53;101258.69;10481649;28;20048;-63
2024/01/28 20:35:01;;;;;;;5.53;3.13;;;;;;;-0.01;63.91;101256.06;10483766;28;20055;-63
2024/01/28 20:40:04;;;;;;;5.63;3.08;;;;;;;0.02;63.77;101248.34;10482432;28;20036;-63
2024/01/28 20:45:07;;;;;;;4.65;2.63;;;;;;;-0.03;64.00;101244.91;10485543;28;20053;-63
2024/01/28 20:50:09;;;;;;;5.10;2.67;;;;;;;-0.01;63.79;101246.66;10480006;28;20040;-63
2024/01/28 20:55:11;;;;;;;7.07;2.78;;;;;;;-0.17;64.13;101241.44;10465316;28;20045;-63
2024/01/28 21:00:13;;;;;;;5.10;2.45;;;;;;;-0.19;64.23;101235.41;10482556;28;20047;-63
2024/01/28 21:05:17;;;;;;;10.77;3.28;;;;;;;-0.13;64.30;101241.47;10486597;28;20264;-63
2024/01/28 21:10:19;;;;;;;7.30;2.60;;;;;;;-0.13;64.30;101245.72;10486364;28;20930;-63
2024/01/28 21:15:22;;;;;;;4.28;2.40;;;;;;;-0.19;64.32;101251.72;10467507;28;20659;-64
2024/01/28 21:20:25;;;;;;;5.85;2.83;;;;;;;-0.15;64.33;101245.72;10467458;28;20040;-63
2024/01/28 21:25:27;;;;;;;5.07;2.70;;;;;;;-0.20;63.90;101241.41;10491539;28;20048;-64
2024/01/28 21:30:29;;;;;;;6.90;2.60;;;;;;;-0.37;64.36;101242.19;10488340;28;20076;-63
2024/01/28 21:35:31;;;;;;;7.13;3.35;;;;;;;-0.39;64.62;101237.88;10484553;28;20048;-64
2024/01/28 21:40:33;;;;;;;7.32;3.13;;;;;;;-0.38;64.48;101231.91;10483376;28;20047;-64
2024/01/28 21:45:35;;;;;;;7.03;3.35;;;;;;;-0.40;64.33;101239.59;10479667;28;20033;-63
2024/01/28 21:50:37;;;;;;;7.65;3.72;;;;;;;-0.44;64.18;101240.44;10488869;28;20064;-64
2024/01/28 21:55:41;;;;;;;6.35;3.33;;;;;;;-0.45;64.61;101232.69;10481525;28;20126;-64
2024/01/28 22:00:43;;;;;;;4.85;2.40;;;;;;;-0.41;64.57;101235.31;10486277;28;20504;-64
2024/01/28 22:05:45;;;;;;;5.85;3.05;;;;;;;-0.41;64.52;101235.31;10465845;28;20083;-64
2024/01/28 22:10:47;;;;;;;5.95;2.85;;;;;;;-0.41;64.56;101240.44;10484016;28;20052;-63
2024/01/28 22:15:49;;;;;;;5.20;3.00;;;;;;;-0.40;64.28;101236.16;10483557;28;20047;-65
2024/01/28 22:20:51;;;;;;;5.50;3.00;;;;;;;-0.56;64.31;101232.66;10471164;28;20134;-64
2024/01/28 22:25:54;;;;;;;8.95;2.88;;;;;;;-0.61;64.63;101231.75;10490191;28;20090;-63
2024/01/28 22:30:57;;;;;;;7.03;3.13;;;;;;;-0.50;64.78;101239.53;10493183;28;20117;-64
2024/01/28 22:35:59;;;;;;;8.50;2.83;;;;;;;-0.50;64.30;101230.13;10481120;28;20049;-63
2024/01/28 22:41:02;;;;;;;4.85;2.83;;;;;;;-0.59;64.62;101237.78;10484311;28;20049;-64
2024/01/28 22:46:04;;;;;;;6.50;2.55;;;;;;;-0.56;64.58;101235.25;10464046;28;20047;-63
2024/01/28 22:51:06;;;;;;;5.95;3.15;;;;;;;-0.60;64.72;101237.78;10485559;28;20488;-63
2024/01/28 22:56:08;;;;;;;6.10;2.78;;;;;;;-0.55;64.60;101244.66;10479131;28;20048;-63
2024/01/28 23:01:11;;;;;;;10.10;3.60;;;;;;;-0.52;64.60;101239.53;10482741;28;20746;-64
2024/01/28 23:06:17;;;;;;;8.32;3.78;;;;;;;-0.54;64.63;101241.25;10482548;28;20044;-64
2024/01/28 23:11:20;;;;;;;6.47;3.17;;;;;;;-0.55;64.63;101244.66;10478534;28;20048;-64
2024/01/28 23:16:22;;;;;;;5.20;2.58;;;;;;;-0.51;64.71;101241.25;10459059;28;20076;-64